createdAt,value
2023-05-10T00:02:25.857Z,96285.09
2023-05-10T00:05:14.297Z,96290.38
2023-05-10T00:08:04.034Z,96283.03
2023-05-10T00:10:52.498Z,96291.13
2023-05-10T00:13:40.859Z,96298.28
2023-05-10T00:16:29.474Z,96297.63
2023-05-10T00:19:17.906Z,96291.28
2023-05-10T00:22:06.284Z,96299.88
2023-05-10T00:24:55.976Z,96291.13
2023-05-10T00:27:44.349Z,96296.63
2023-05-10T00:30:33.228Z,96297.22
2023-05-10T00:33:21.657Z,96303.56
2023-05-10T00:36:10.300Z,96299.63
2023-05-10T00:38:58.662Z,96303.69
2023-05-10T00:41:48.384Z,96315.53
2023-05-10T00:44:38.276Z,96314.06
2023-05-10T00:47:27.882Z,96307.84
2023-05-10T00:50:17.031Z,96307.19
2023-05-10T00:53:05.626Z,96304.94
2023-05-10T00:55:54.066Z,96305.81
2023-05-10T00:58:44.631Z,96302.78
2023-05-10T01:01:33.100Z,96295.66
2023-05-10T01:04:26.403Z,96299.72
2023-05-10T01:07:14.844Z,96290.78
2023-05-10T01:10:03.478Z,96294.03
2023-05-10T01:12:52.236Z,96300.69
2023-05-10T01:15:42.159Z,96292.25
2023-05-10T01:18:31.832Z,96298.00
2023-05-10T01:21:26.170Z,96304.19
2023-05-10T01:24:42.220Z,96292.03
2023-05-10T01:27:53.482Z,96289.59
2023-05-10T01:31:06.672Z,96285.66
2023-05-10T01:34:00.003Z,96285.00
2023-05-10T01:36:53.413Z,96289.41
2023-05-10T01:39:48.122Z,96288.97
2023-05-10T01:42:42.444Z,96282.31
2023-05-10T01:45:35.525Z,96286.91
2023-05-10T01:48:25.629Z,96288.06
2023-05-10T01:51:16.509Z,96289.31
2023-05-10T01:54:05.989Z,96288.50
2023-05-10T01:56:59.722Z,96280.88
2023-05-10T01:59:52.014Z,96280.28
2023-05-10T02:02:43.108Z,96289.88
2023-05-10T02:05:34.337Z,96289.88
2023-05-10T02:08:24.850Z,96285.47
2023-05-10T02:11:14.943Z,96290.88
2023-05-10T02:14:03.508Z,96289.97
2023-05-10T02:16:53.074Z,96292.00
2023-05-10T02:19:43.026Z,96287.38
2023-05-10T02:22:31.803Z,96289.84
2023-05-10T02:25:21.924Z,96287.63
2023-05-10T02:28:12.842Z,96283.56
2023-05-10T02:31:01.363Z,96289.41
2023-05-10T02:33:50.586Z,96292.00
2023-05-10T02:36:40.576Z,96287.63
2023-05-10T02:39:29.872Z,96291.69
2023-05-10T02:42:22.015Z,96292.66
2023-05-10T02:45:14.177Z,96286.03
2023-05-10T02:48:04.422Z,96287.03
2023-05-10T02:50:54.865Z,96292.28
2023-05-10T02:53:46.179Z,96287.72
2023-05-10T02:56:36.725Z,96297.94
2023-05-10T02:59:26.555Z,96291.63
2023-05-10T03:02:15.178Z,96296.09
2023-05-10T03:05:04.056Z,96300.84
2023-05-10T03:07:52.873Z,96305.13
2023-05-10T03:10:52.690Z,96298.19
2023-05-10T03:13:47.729Z,96305.13
2023-05-10T03:16:44.932Z,96306.69
2023-05-10T03:19:37.080Z,96306.91
2023-05-10T03:22:28.192Z,96305.34
2023-05-10T03:25:17.781Z,96308.03
2023-05-10T03:28:06.713Z,96306.00
2023-05-10T03:30:56.313Z,96312.97
2023-05-10T03:33:50.254Z,96309.84
2023-05-10T03:36:43.916Z,96302.97
2023-05-10T03:39:32.531Z,96313.31
2023-05-10T03:42:22.716Z,96311.66
2023-05-10T03:45:11.969Z,96317.06
2023-05-10T03:48:01.580Z,96317.97
2023-05-10T03:50:51.436Z,96306.03
2023-05-10T03:53:39.855Z,96312.56
2023-05-10T03:56:28.276Z,96318.44
2023-05-10T03:59:16.737Z,96315.59
2023-05-10T04:02:05.273Z,96325.59
2023-05-10T04:04:53.747Z,96316.16
2023-05-10T04:07:45.330Z,96321.34
2023-05-10T04:10:34.436Z,96322.22
2023-05-10T04:13:23.645Z,96322.66
2023-05-10T04:16:12.042Z,96325.38
2023-05-10T04:19:00.837Z,96326.72
2023-05-10T04:21:49.243Z,96327.16
2023-05-10T04:24:38.960Z,96334.03
2023-05-10T04:27:27.486Z,96335.69
2023-05-10T04:30:16.190Z,96328.25
2023-05-10T04:33:05.260Z,96333.22
2023-05-10T04:35:53.639Z,96336.56
2023-05-10T04:38:42.022Z,96329.19
2023-05-10T04:41:31.981Z,96337.56
2023-05-10T04:44:20.628Z,96332.50
2023-05-10T04:47:10.501Z,96332.16
2023-05-10T04:50:01.115Z,96335.00
2023-05-10T04:52:49.499Z,96334.50
2023-05-10T04:55:37.923Z,96338.09
2023-05-10T04:58:27.631Z,96343.31
2023-05-10T05:01:16.048Z,96339.44
2023-05-10T05:04:04.732Z,96341.28
2023-05-10T05:06:54.040Z,96342.88
2023-05-10T05:09:43.605Z,96351.25
2023-05-10T05:12:32.085Z,96354.31
2023-05-10T05:15:22.014Z,96353.09
2023-05-10T05:18:10.603Z,96352.09
2023-05-10T05:20:59.075Z,96360.13
2023-05-10T05:23:47.723Z,96364.22
2023-05-10T05:26:36.237Z,96369.50
2023-05-10T05:29:24.640Z,96371.06
2023-05-10T05:32:14.364Z,96378.13
2023-05-10T05:35:02.750Z,96390.03
2023-05-10T05:37:51.149Z,96388.34
2023-05-10T05:40:39.578Z,96383.25
2023-05-10T05:43:28.000Z,96385.53
2023-05-10T05:46:16.412Z,96389.16
2023-05-10T05:49:06.703Z,96397.47
2023-05-10T05:51:55.139Z,96399.56
2023-05-10T05:54:43.520Z,96402.94
2023-05-10T05:57:32.431Z,96406.50
2023-05-10T06:00:20.870Z,96414.59
2023-05-10T06:03:09.657Z,96414.41
2023-05-10T06:05:59.558Z,96415.72
2023-05-10T06:08:48.003Z,96414.41
2023-05-10T06:11:36.510Z,96415.78
2023-05-10T06:14:25.101Z,96418.06
2023-05-10T06:17:13.505Z,96422.28
2023-05-10T06:20:01.909Z,96426.44
2023-05-10T06:22:52.014Z,96432.09
2023-05-10T06:25:40.393Z,96433.38
2023-05-10T06:28:28.807Z,96436.91
2023-05-10T06:31:17.213Z,96446.94
2023-05-10T06:34:05.675Z,96447.31
2023-05-10T06:36:54.045Z,96451.22
2023-05-10T06:39:43.911Z,96449.72
2023-05-10T06:42:32.494Z,96459.19
2023-05-10T06:45:21.233Z,96458.78
2023-05-10T06:48:09.774Z,96466.09
2023-05-10T06:50:58.238Z,96470.09
2023-05-10T06:53:46.611Z,96468.66
2023-05-10T06:56:36.394Z,96468.38
2023-05-10T06:59:25.225Z,96471.03
2023-05-10T07:02:13.951Z,96473.69
2023-05-10T07:05:03.650Z,96488.53
2023-05-10T07:07:52.736Z,96481.56
2023-05-10T07:10:41.192Z,96484.81
2023-05-10T07:13:31.246Z,96483.09
2023-05-10T07:16:19.746Z,96485.41
2023-05-10T07:19:08.673Z,96496.06
2023-05-10T07:21:57.178Z,96492.00
2023-05-10T07:24:47.735Z,96484.00
2023-05-10T07:27:36.154Z,96494.75
2023-05-10T07:30:26.024Z,96496.66
2023-05-10T07:33:15.564Z,96506.66
2023-05-10T07:36:04.108Z,96500.81
2023-05-10T07:38:52.522Z,96499.63
2023-05-10T07:41:41.007Z,96499.69
2023-05-10T07:44:29.400Z,96504.31
2023-05-10T07:47:19.156Z,96503.44
2023-05-10T07:50:09.640Z,96510.66
2023-05-10T07:52:58.077Z,96518.34
2023-05-10T07:55:47.017Z,96522.84
2023-05-10T07:58:35.425Z,96516.22
2023-05-10T08:01:24.316Z,96521.06
2023-05-10T08:04:14.221Z,96519.41
2023-05-10T08:07:02.723Z,96516.75
2023-05-10T08:09:51.096Z,96516.63
2023-05-10T08:12:39.824Z,96518.59
2023-05-10T08:15:28.217Z,96515.63
2023-05-10T08:18:16.642Z,96520.00
2023-05-10T08:21:06.519Z,96525.41
2023-05-10T08:23:55.223Z,96528.19
2023-05-10T08:26:43.579Z,96526.94
2023-05-10T08:29:38.631Z,96526.56
2023-05-10T08:32:36.007Z,96519.13
2023-05-10T08:35:25.351Z,96524.22
2023-05-10T08:38:15.098Z,96522.09
2023-05-10T08:41:04.362Z,96528.53
2023-05-10T08:43:53.610Z,96527.66
2023-05-10T08:46:45.071Z,96532.06
2023-05-10T08:49:34.589Z,96525.72
2023-05-10T08:52:28.925Z,96529.78
2023-05-10T08:55:18.994Z,96527.53
2023-05-10T08:58:07.863Z,96526.75
2023-05-10T09:00:56.369Z,96520.78
2023-05-10T09:03:45.253Z,96532.03
2023-05-10T09:06:34.254Z,96527.78
2023-05-10T09:09:23.681Z,96527.78
2023-05-10T09:12:20.505Z,96523.56
2023-05-10T09:15:09.686Z,96518.44
2023-05-10T09:17:59.138Z,96523.50
2023-05-10T09:20:47.654Z,96519.47
2023-05-10T09:26:25.129Z,96531.66
2023-05-10T09:29:16.700Z,96529.38
2023-05-10T09:32:06.144Z,96534.69
2023-05-10T09:34:54.667Z,96528.03
2023-05-10T09:37:44.856Z,96539.84
2023-05-10T09:40:33.735Z,96518.53
2023-05-10T09:43:22.383Z,96524.72
2023-05-10T09:46:12.310Z,96529.22
2023-05-10T09:49:01.035Z,96526.72
2023-05-10T09:51:49.467Z,96534.88
2023-05-10T09:54:38.008Z,96545.75
2023-05-10T09:57:26.990Z,96545.53
2023-05-10T10:00:20.043Z,96545.56
2023-05-10T10:03:14.893Z,96538.97
2023-05-10T10:06:03.397Z,96544.84
2023-05-10T10:08:52.048Z,96535.75
2023-05-10T10:11:42.461Z,96538.19
2023-05-10T10:14:31.333Z,96541.00
2023-05-10T10:17:19.934Z,96541.97
2023-05-10T10:20:12.084Z,96546.19
2023-05-10T10:23:00.714Z,96548.72
2023-05-10T10:25:49.985Z,96544.00
2023-05-10T10:28:43.360Z,96555.13
2023-05-10T10:31:39.898Z,96546.31
2023-05-10T10:34:30.029Z,96546.06
2023-05-10T10:37:19.819Z,96544.03
2023-05-10T10:40:27.172Z,96542.34
2023-05-10T10:43:26.451Z,96530.53
2023-05-10T10:46:15.971Z,96533.84
2023-05-10T10:49:11.482Z,96536.00
2023-05-10T10:52:16.076Z,96527.22
2023-05-10T10:55:09.383Z,96520.81
2023-05-10T10:58:03.235Z,96524.94
2023-05-10T11:00:51.801Z,96520.41
2023-05-10T11:03:40.225Z,96516.78
2023-05-10T11:06:32.757Z,96512.78
2023-05-10T11:09:21.796Z,96511.97
2023-05-10T11:12:11.715Z,96510.34
2023-05-10T11:15:00.152Z,96509.16
2023-05-10T11:17:53.051Z,96504.75
2023-05-10T11:20:41.801Z,96505.84
2023-05-10T11:23:34.209Z,96504.06
2023-05-10T11:26:26.182Z,96499.50
2023-05-10T11:29:16.017Z,96498.34
2023-05-10T11:32:09.119Z,96501.16
2023-05-10T11:34:57.527Z,96508.66
2023-05-10T11:37:50.256Z,96512.03
2023-05-10T11:40:39.663Z,96500.72
2023-05-10T11:43:31.613Z,96509.22
2023-05-10T11:46:22.844Z,96507.75
2023-05-10T11:49:11.310Z,96502.63
2023-05-10T11:52:08.722Z,96504.91
2023-05-10T11:54:57.521Z,96505.13
2023-05-10T11:57:47.007Z,96510.09
2023-05-10T12:00:35.567Z,96511.59
2023-05-10T12:03:25.510Z,96507.66
2023-05-10T12:06:14.010Z,96513.81
2023-05-10T12:09:07.839Z,96506.09
2023-05-10T12:11:58.201Z,96512.94
2023-05-10T12:14:51.294Z,96521.22
2023-05-10T12:17:41.943Z,96518.50
2023-05-10T12:20:33.250Z,96521.06
2023-05-10T12:23:22.076Z,96509.50
2023-05-10T12:26:11.567Z,96521.81
2023-05-10T12:29:14.854Z,96524.41
2023-05-10T12:32:04.254Z,96525.09
2023-05-10T12:34:54.730Z,96525.09
2023-05-10T12:37:45.055Z,96539.75
2023-05-10T12:40:33.440Z,96530.59
2023-05-10T12:43:22.169Z,96538.41
2023-05-10T12:46:11.530Z,96538.81
2023-05-10T12:49:08.614Z,96554.72
2023-05-10T12:51:58.073Z,96552.09
2023-05-10T12:54:47.862Z,96549.53
2023-05-10T12:57:36.253Z,96550.06
2023-05-10T13:00:24.673Z,96550.09
2023-05-10T13:03:13.134Z,96544.03
2023-05-10T13:06:01.549Z,96547.38
2023-05-10T13:08:50.061Z,96543.41
2023-05-10T13:11:39.818Z,96544.06
2023-05-10T13:14:29.300Z,96544.88
2023-05-10T13:17:17.888Z,96544.28
2023-05-10T13:20:08.541Z,96544.47
2023-05-10T13:22:56.990Z,96551.88
2023-05-10T13:25:45.606Z,96552.16
2023-05-10T13:28:35.628Z,96557.34
2023-05-10T13:31:24.027Z,96558.19
2023-05-10T13:34:12.451Z,96552.28
2023-05-10T13:37:00.869Z,96554.94
2023-05-10T13:39:49.607Z,96557.97
2023-05-10T13:42:38.574Z,96551.03
2023-05-10T13:45:28.403Z,96547.63
2023-05-10T13:48:17.120Z,96547.88
2023-05-10T13:51:05.670Z,96545.81
2023-05-10T13:53:54.150Z,96544.69
2023-05-10T13:56:44.897Z,96547.63
2023-05-10T13:59:33.370Z,96547.13
2023-05-10T14:02:23.135Z,96549.41
2023-05-10T14:05:11.517Z,96552.94
2023-05-10T14:07:59.898Z,96554.81
2023-05-10T14:10:48.308Z,96556.59
2023-05-10T14:13:36.750Z,96550.97
2023-05-10T14:16:25.188Z,96554.13
2023-05-10T14:19:14.955Z,96553.44
2023-05-10T14:22:03.775Z,96569.41
2023-05-10T14:24:52.218Z,96559.78
2023-05-10T14:27:40.584Z,96555.66
2023-05-10T14:30:29.061Z,96563.59
2023-05-10T14:33:18.562Z,96565.88
2023-05-10T14:36:09.492Z,96566.53
2023-05-10T14:38:57.873Z,96570.91
2023-05-10T14:41:46.754Z,96564.41
2023-05-10T14:44:35.171Z,96566.72
2023-05-10T14:47:23.694Z,96569.25
2023-05-10T14:50:21.513Z,96572.28
2023-05-10T14:53:21.943Z,96572.59
2023-05-10T14:56:10.337Z,96575.09
2023-05-10T14:58:58.805Z,96573.25
2023-05-10T15:01:47.612Z,96580.09
2023-05-10T15:04:36.555Z,96581.13
2023-05-10T15:07:25.586Z,96586.34
2023-05-10T15:10:15.704Z,96582.72
2023-05-10T15:13:06.111Z,96585.75
2023-05-10T15:15:54.618Z,96592.69
2023-05-10T15:18:43.116Z,96591.50
2023-05-10T15:21:36.063Z,96596.00
2023-05-10T15:24:24.527Z,96597.44
2023-05-10T15:27:14.301Z,96599.03
2023-05-10T15:30:02.727Z,96594.41
2023-05-10T15:32:51.221Z,96599.25
2023-05-10T15:35:40.563Z,96605.19
2023-05-10T15:38:28.971Z,96606.06
2023-05-10T15:41:18.049Z,96602.88
2023-05-10T15:44:07.808Z,96595.25
2023-05-10T15:46:56.900Z,96598.88
2023-05-10T15:49:45.338Z,96596.84
2023-05-10T15:52:33.737Z,96598.38
2023-05-10T15:55:22.229Z,96604.63
2023-05-10T15:58:11.256Z,96618.69
2023-05-10T16:01:01.099Z,96622.59
2023-05-10T16:03:49.511Z,96618.13
2023-05-10T16:06:38.141Z,96621.59
2023-05-10T16:09:26.702Z,96623.84
2023-05-10T16:12:15.123Z,96640.56
2023-05-10T16:15:03.780Z,96643.22
2023-05-10T16:17:53.849Z,96638.75
2023-05-10T16:20:42.367Z,96635.72
2023-05-10T16:23:30.904Z,96635.44
2023-05-10T16:26:19.281Z,96638.22
2023-05-10T16:29:08.004Z,96645.44
2023-05-10T16:31:56.396Z,96637.78
2023-05-10T16:34:46.173Z,96640.03
2023-05-10T16:37:34.544Z,96641.53
2023-05-10T16:40:23.989Z,96649.06
2023-05-10T16:43:12.390Z,96643.75
2023-05-10T16:46:00.798Z,96651.28
2023-05-10T16:48:49.243Z,96646.97
2023-05-10T16:51:39.004Z,96648.88
2023-05-10T16:54:27.402Z,96654.38
2023-05-10T16:57:15.806Z,96658.53
2023-05-10T17:00:04.465Z,96668.44
2023-05-10T17:02:54.087Z,96675.94
2023-05-10T17:05:43.242Z,96664.50
2023-05-10T17:08:32.953Z,96665.72
2023-05-10T17:11:21.933Z,96665.94
2023-05-10T17:14:10.372Z,96668.06
2023-05-10T17:16:58.931Z,96669.78
2023-05-10T17:19:47.508Z,96668.38
2023-05-10T17:22:35.934Z,96668.41
2023-05-10T17:25:25.691Z,96668.75
2023-05-10T17:28:15.663Z,96673.19
2023-05-10T17:31:04.209Z,96680.47
2023-05-10T17:33:52.839Z,96686.03
2023-05-10T17:36:41.262Z,96683.66
2023-05-10T17:39:29.639Z,96688.06
2023-05-10T17:42:20.794Z,96695.72
2023-05-10T17:45:10.498Z,96695.06
2023-05-10T17:47:58.922Z,96694.59
2023-05-10T17:50:47.326Z,96703.47
2023-05-10T17:53:36.113Z,96704.91
2023-05-10T17:56:24.523Z,96707.09
2023-05-10T17:59:14.305Z,96706.81
2023-05-10T18:02:03.540Z,96705.66
2023-05-10T18:04:52.047Z,96706.47
2023-05-10T18:07:40.591Z,96714.38
2023-05-10T18:10:29.049Z,96707.38
2023-05-10T18:13:17.558Z,96723.84
2023-05-10T18:16:08.840Z,96716.72
2023-05-10T18:18:57.359Z,96725.75
2023-05-10T18:21:45.793Z,96716.44
2023-05-10T18:24:39.429Z,96720.25
2023-05-10T18:27:28.797Z,96733.25
2023-05-10T18:30:17.447Z,96729.63
2023-05-10T18:33:07.607Z,96736.25
2023-05-10T18:35:56.095Z,96735.78
2023-05-10T18:38:44.603Z,96739.09
2023-05-10T18:41:33.001Z,96737.97
2023-05-10T18:44:21.979Z,96740.69
2023-05-10T18:47:10.475Z,96745.13
2023-05-10T18:50:00.242Z,96745.31
2023-05-10T18:52:48.953Z,96743.63
2023-05-10T18:55:37.464Z,96742.22
2023-05-10T18:58:26.065Z,96740.91
2023-05-10T19:01:14.615Z,96739.03
2023-05-10T19:04:03.112Z,96736.84
2023-05-10T19:06:52.996Z,96748.91
2023-05-10T19:09:41.602Z,96740.81
2023-05-10T19:12:30.071Z,96743.13
2023-05-10T19:15:20.150Z,96747.59
2023-05-10T19:18:10.331Z,96757.63
2023-05-10T19:20:58.863Z,96760.59
2023-05-10T19:23:49.298Z,96761.22
2023-05-10T19:26:37.788Z,96757.09
2023-05-10T19:29:27.280Z,96759.91
2023-05-10T19:32:15.808Z,96758.13
2023-05-10T19:35:04.566Z,96766.53
2023-05-10T19:37:53.654Z,96763.88
2023-05-10T19:40:43.696Z,96771.66
2023-05-10T19:43:34.523Z,96770.84
2023-05-10T19:46:23.104Z,96766.06
2023-05-10T19:49:11.596Z,96757.38
2023-05-10T19:52:00.097Z,96761.22
2023-05-10T19:54:48.574Z,96768.72
2023-05-10T19:57:38.461Z,96770.31
2023-05-10T20:00:27.726Z,96769.72
2023-05-10T20:03:16.686Z,96773.59
2023-05-10T20:06:05.433Z,96775.25
2023-05-10T20:08:54.112Z,96773.00
2023-05-10T20:11:42.578Z,96769.56
2023-05-10T20:14:32.453Z,96775.41
2023-05-10T20:17:20.975Z,96773.50
2023-05-10T20:20:09.816Z,96782.28
2023-05-10T20:22:58.343Z,96773.41
2023-05-10T20:25:47.125Z,96781.03
2023-05-10T20:28:36.135Z,96772.66
2023-05-10T20:31:25.997Z,96783.81
2023-05-10T20:34:14.526Z,96779.50
2023-05-10T20:37:03.143Z,96779.50
2023-05-10T20:39:51.666Z,96783.41
2023-05-10T20:42:40.151Z,96781.16
2023-05-10T20:45:28.619Z,96780.31
2023-05-10T20:48:19.501Z,96786.34
2023-05-10T20:51:08.164Z,96786.19
2023-05-10T20:53:57.201Z,96789.47
2023-05-10T20:56:45.745Z,96775.41
2023-05-10T20:59:34.334Z,96780.03
2023-05-10T21:02:22.715Z,96778.56
2023-05-10T21:05:13.212Z,96774.91
2023-05-10T21:08:01.665Z,96772.22
2023-05-10T21:10:50.268Z,96772.81
2023-05-10T21:13:38.639Z,96772.09
2023-05-10T21:16:28.158Z,96761.81
2023-05-10T21:19:17.121Z,96754.41
2023-05-10T21:22:07.662Z,96756.69
2023-05-10T21:24:56.045Z,96767.34
2023-05-10T21:27:44.416Z,96757.28
2023-05-10T21:30:33.420Z,96755.78
2023-05-10T21:33:21.810Z,96762.63
2023-05-10T21:36:10.245Z,96769.28
2023-05-10T21:39:00.018Z,96764.41
2023-05-10T21:41:48.366Z,96766.97
2023-05-10T21:44:37.100Z,96761.19
2023-05-10T21:47:25.483Z,96757.47
2023-05-10T21:50:13.874Z,96763.06
2023-05-10T21:53:02.835Z,96760.84
2023-05-10T21:55:52.648Z,96751.19
2023-05-10T21:58:41.041Z,96756.81
2023-05-10T22:01:29.508Z,96756.44
2023-05-10T22:04:17.916Z,96752.47
2023-05-10T22:07:06.374Z,96755.03
2023-05-10T22:09:54.843Z,96761.97
2023-05-10T22:12:44.598Z,96757.03
2023-05-10T22:15:36.155Z,96767.38
2023-05-10T22:18:25.069Z,96761.47
2023-05-10T22:21:13.502Z,96762.16
2023-05-10T22:24:01.866Z,96761.06
2023-05-10T22:26:50.242Z,96756.56
2023-05-10T22:29:40.006Z,96761.19
2023-05-10T22:32:28.486Z,96760.84
2023-05-10T22:35:16.883Z,96748.81
2023-05-10T22:38:05.300Z,96758.50
2023-05-10T22:40:53.723Z,96754.13
2023-05-10T22:43:42.064Z,96757.69
2023-05-10T22:46:32.528Z,96749.72
2023-05-10T22:49:20.932Z,96751.19
2023-05-10T22:52:09.347Z,96750.59
2023-05-10T22:54:57.739Z,96753.94
2023-05-10T22:57:46.087Z,96758.41
2023-05-10T23:00:34.512Z,96749.59
2023-05-10T23:03:24.256Z,96748.38
2023-05-10T23:06:12.669Z,96746.34
2023-05-10T23:09:01.031Z,96753.69
2023-05-10T23:11:49.391Z,96749.34
2023-05-10T23:14:38.157Z,96747.41
2023-05-10T23:17:26.562Z,96757.56
2023-05-10T23:20:17.144Z,96751.00
2023-05-10T23:23:05.803Z,96757.53
2023-05-10T23:25:54.314Z,96756.31
2023-05-10T23:28:42.686Z,96754.00
2023-05-10T23:31:31.375Z,96757.91
2023-05-10T23:34:19.808Z,96753.19
2023-05-10T23:37:09.559Z,96745.56
2023-05-10T23:39:57.968Z,96747.13
2023-05-10T23:42:46.398Z,96746.81
2023-05-10T23:45:34.867Z,96745.69
2023-05-10T23:48:23.363Z,96741.13
2023-05-10T23:51:11.834Z,96738.56
2023-05-10T23:54:02.122Z,96740.34
2023-05-10T23:56:51.536Z,96739.34
2023-05-10T23:59:39.872Z,96741.75
